Nichioh Maru — JD3267 — position and weather

sailwx.info

Track history (hours):
 
Tides and Currents Weather Stations Pressure Air Temp Water Temp Dewpoint Dewpoint Depression Visibility Wind Speed Wind Dir Waves Ship Positions

Nichioh Maru

Last reported at 2015-Aug-30 22:18 UTC. Time now 2015-Aug-31 15:21 UTC.
Position N 34°35' E 135°16'.

Length 170 m; draft 6.5 m.

Type: Cargo ship. MMSI: 431003232.

Date/timePositionNaut miles runAvg speedWind from/ knotsBaromVisibWave heightAir tempDewpointWater temp
2015-Aug-30 22:18N 34°35' E 135°16'1314.7
2015-Aug-30 21:26N 34°25' E 135°06'1415.6
2015-Aug-30 20:33N 34°13' E 134°59'225 7.5
2015-Aug-29 14:27N 34°58' E 139°27'1416.0
2015-Aug-29 13:34N 35°06' E 139°41'1312.6
2015-Aug-29 12:34N 35°18' E 139°44'1212.3
2015-Aug-29 11:33N 35°30' E 139°47'1 0.5
2015-Aug-29 10:31N 35°30' E 139°46'0 0.0
2015-Aug-29 09:28N 35°30' E 139°46'0 0.0
2015-Aug-29 08:31N 35°30' E 139°46'0 0.0
2015-Aug-29 07:31N 35°30' E 139°46'0 0.0
2015-Aug-29 06:31N 35°30' E 139°46'0 0.0
2015-Aug-29 05:31N 35°30' E 139°46'0 0.0
2015-Aug-29 04:33N 35°30' E 139°46'5 4.7
2015-Aug-29 03:33N 35°26' E 139°46'9 8.5
2015-Aug-29 02:29N 35°19' E 139°39'0 0.0
2015-Aug-29 01:32N 35°19' E 139°39'0 0.0
2015-Aug-29 00:32N 35°19' E 139°39'0 0.0
2015-Aug-28 23:29N 35°19' E 139°39'0 0.0
2015-Aug-28 22:33N 35°19' E 139°39'3 3.3
2015-Aug-28 21:33N 35°18' E 139°43'1010.5
2015-Aug-28 20:33N 35°08' E 139°46'24415.1
2015-Aug-28 04:20N 34°07' E 134°59'3518.7
2015-Aug-28 02:29N 34°39' E 135°16'1 0.3
2015-Aug-27 22:18N 34°38' E 135°16'  
2015-Aug-24 05:34N 34°38' E 134°60'1211.9
2015-Aug-24 04:33N 34°41' E 135°14'0 0.1
2015-Aug-24 03:28N 34°41' E 135°13'0 0.0
2015-Aug-24 02:22N 34°41' E 135°13'0 0.0
2015-Aug-24 01:28N 34°41' E 135°13'3 3.0
2015-Aug-24 00:33N 34°39' E 135°16'1919.4
2015-Aug-23 23:33N 34°23' E 135°03'1918.7
2015-Aug-23 22:33N 34°04' E 135°01'224 6.7
2015-Aug-22 13:23N 34°57' E 139°25'1214.9
2015-Aug-22 12:33N 35°04' E 139°37'1313.4
2015-Aug-22 11:33N 35°15' E 139°46'1111.3
2015-Aug-22 10:33N 35°26' E 139°45'4 4.2
2015-Aug-22 09:31N 35°30' E 139°46'0 0.0
2015-Aug-22 08:31N 35°30' E 139°46'0 0.0
2015-Aug-22 07:31N 35°30' E 139°46'0 0.0
2015-Aug-22 06:31N 35°30' E 139°46'0 0.0
2015-Aug-22 05:31N 35°30' E 139°46'0 0.0
2015-Aug-22 04:34N 35°30' E 139°46'6 6.5
2015-Aug-22 03:33N 35°24' E 139°46'8 7.5
2015-Aug-22 02:32N 35°19' E 139°39'0 0.0
2015-Aug-22 01:32N 35°19' E 139°39'0 0.0
2015-Aug-22 00:32N 35°19' E 139°39'0 0.0
2015-Aug-21 23:32N 35°19' E 139°39'0 0.0
2015-Aug-21 22:33N 35°19' E 139°39'7 7.1
2015-Aug-21 21:34N 35°16' E 139°47'1414.4
2015-Aug-21 20:33N 35°02' E 139°42'1717.0
2015-Aug-21 19:33N 34°52' E 139°25'22515.9
2015-Aug-21 05:22N 33°59' E 134°60'1518.8
2015-Aug-21 04:34N 34°14' E 134°59'1817.6
2015-Aug-21 03:33N 34°30' E 135°08'1111.0
2015-Aug-21 02:33N 34°41' E 135°13'0 0.0
2015-Aug-21 01:27N 34°41' E 135°13'0 0.0
2015-Aug-21 00:27N 34°41' E 135°13'0 0.0
2015-Aug-20 23:33N 34°41' E 135°13'2 1.7
2015-Aug-20 22:33N 34°40' E 135°15'  
Track history (hours):
 
Tides and Currents Weather Stations Pressure Air Temp Water Temp Dewpoint Dewpoint Depression Visibility Wind Speed Wind Dir Waves Ship Positions

Nichioh Maru

Last reported at 2015-Aug-30 22:18 UTC. Time now 2015-Aug-31 15:21 UTC.
Position N 34°35' E 135°16'.

Length 170 m; draft 6.5 m.

Type: Cargo ship. MMSI: 431003232.

Date/timePositionNaut miles runAvg speedWind from/ knotsBaromVisibWave heightAir tempDewpointWater temp
2015-Aug-30 22:18N 34°35' E 135°16'1314.7
2015-Aug-30 21:26N 34°25' E 135°06'1415.6
2015-Aug-30 20:33N 34°13' E 134°59'225 7.5
2015-Aug-29 14:27N 34°58' E 139°27'1416.0
2015-Aug-29 13:34N 35°06' E 139°41'1312.6
2015-Aug-29 12:34N 35°18' E 139°44'1212.3
2015-Aug-29 11:33N 35°30' E 139°47'1 0.5
2015-Aug-29 10:31N 35°30' E 139°46'0 0.0
2015-Aug-29 09:28N 35°30' E 139°46'0 0.0
2015-Aug-29 08:31N 35°30' E 139°46'0 0.0
2015-Aug-29 07:31N 35°30' E 139°46'0 0.0
2015-Aug-29 06:31N 35°30' E 139°46'0 0.0
2015-Aug-29 05:31N 35°30' E 139°46'0 0.0
2015-Aug-29 04:33N 35°30' E 139°46'5 4.7
2015-Aug-29 03:33N 35°26' E 139°46'9 8.5
2015-Aug-29 02:29N 35°19' E 139°39'0 0.0
2015-Aug-29 01:32N 35°19' E 139°39'0 0.0
2015-Aug-29 00:32N 35°19' E 139°39'0 0.0
2015-Aug-28 23:29N 35°19' E 139°39'0 0.0
2015-Aug-28 22:33N 35°19' E 139°39'3 3.3
2015-Aug-28 21:33N 35°18' E 139°43'1010.5
2015-Aug-28 20:33N 35°08' E 139°46'24415.1
2015-Aug-28 04:20N 34°07' E 134°59'3518.7
2015-Aug-28 02:29N 34°39' E 135°16'1 0.3
2015-Aug-27 22:18N 34°38' E 135°16'  
2015-Aug-24 05:34N 34°38' E 134°60'1211.9
2015-Aug-24 04:33N 34°41' E 135°14'0 0.1
2015-Aug-24 03:28N 34°41' E 135°13'0 0.0
2015-Aug-24 02:22N 34°41' E 135°13'0 0.0
2015-Aug-24 01:28N 34°41' E 135°13'3 3.0
2015-Aug-24 00:33N 34°39' E 135°16'1919.4
2015-Aug-23 23:33N 34°23' E 135°03'1918.7
2015-Aug-23 22:33N 34°04' E 135°01'224 6.7
2015-Aug-22 13:23N 34°57' E 139°25'1214.9
2015-Aug-22 12:33N 35°04' E 139°37'1313.4
2015-Aug-22 11:33N 35°15' E 139°46'1111.3
2015-Aug-22 10:33N 35°26' E 139°45'4 4.2
2015-Aug-22 09:31N 35°30' E 139°46'0 0.0
2015-Aug-22 08:31N 35°30' E 139°46'0 0.0
2015-Aug-22 07:31N 35°30' E 139°46'0 0.0
2015-Aug-22 06:31N 35°30' E 139°46'0 0.0
2015-Aug-22 05:31N 35°30' E 139°46'0 0.0
2015-Aug-22 04:34N 35°30' E 139°46'6 6.5
2015-Aug-22 03:33N 35°24' E 139°46'8 7.5
2015-Aug-22 02:32N 35°19' E 139°39'0 0.0
2015-Aug-22 01:32N 35°19' E 139°39'0 0.0
2015-Aug-22 00:32N 35°19' E 139°39'0 0.0
2015-Aug-21 23:32N 35°19' E 139°39'0 0.0
2015-Aug-21 22:33N 35°19' E 139°39'7 7.1
2015-Aug-21 21:34N 35°16' E 139°47'1414.4
2015-Aug-21 20:33N 35°02' E 139°42'1717.0
2015-Aug-21 19:33N 34°52' E 139°25'22515.9
2015-Aug-21 05:22N 33°59' E 134°60'1518.8
2015-Aug-21 04:34N 34°14' E 134°59'1817.6
2015-Aug-21 03:33N 34°30' E 135°08'1111.0
2015-Aug-21 02:33N 34°41' E 135°13'0 0.0
2015-Aug-21 01:27N 34°41' E 135°13'0 0.0
2015-Aug-21 00:27N 34°41' E 135°13'0 0.0
2015-Aug-20 23:33N 34°41' E 135°13'2 1.7
2015-Aug-20 22:33N 34°40' E 135°15'  

Dump ship's entire track history